Dart — OUOV2 — position and weather

sailwx.info

Track history (hours):
 
Tides and Currents Weather Stations Pressure Air Temp Water Temp Dewpoint Dewpoint Depression Visibility Wind Speed Wind Dir Waves Ship Positions

Dart

Last reported at 2015-May-24 12:32 UTC. Time now 2015-May-25 01:23 UTC.
Position N 63°07' E 007°44'.

Length 66 m; draft 4.5 m.

Type: Tanker. MMSI: 219416000.

Date/timePositionNaut miles runAvg speedWind from/ knotsBaromVisibWave heightAir tempDewpointWater temp
2015-May-24 12:32N 63°07' E 007°44'0 0.0
2015-May-24 11:32N 63°07' E 007°44'0 0.0
2015-May-23 22:13N 63°07' E 007°44'229 4.6
2015-May-21 20:23N 59°30' E 005°13'5 5.8
2015-May-21 19:31N 59°25' E 005°14'0 0.0
2015-May-21 18:31N 59°25' E 005°14'0 0.0
2015-May-21 17:22N 59°25' E 005°14'0 0.0
2015-May-21 16:28N 59°25' E 005°14'8 6.3
2015-May-21 15:16N 59°18' E 005°20'810.6
2015-May-21 14:33N 59°10' E 005°22'9 9.0
2015-May-21 13:33N 59°03' E 005°33'8 7.6
2015-May-21 12:33N 58°56' E 005°36'0 0.0
2015-May-21 11:33N 58°56' E 005°36'0 0.0
2015-May-21 10:33N 58°56' E 005°36'0 0.0
2015-May-21 09:33N 58°56' E 005°36'0 0.0
2015-May-21 08:33N 58°56' E 005°36'0 0.0
2015-May-21 07:33N 58°56' E 005°36'0 0.2
2015-May-21 06:33N 58°56' E 005°35'9 8.7
2015-May-21 05:33N 59°04' E 005°32'9 8.9
2015-May-21 04:33N 59°11' E 005°20'9 8.3
2015-May-21 03:29N 59°20' E 005°19'9 8.1
2015-May-21 02:25N 59°28' E 005°13'  
2015-May-16 05:25N 59°30' E 005°13'1110.0
2015-May-16 04:22N 59°20' E 005°19'910.4
2015-May-16 03:33N 59°12' E 005°22'9 9.1
2015-May-16 02:33N 59°05' E 005°33'5 1.0
2015-May-15 21:20N 59°01' E 005°40'4 5.2
2015-May-15 20:33N 58°59' E 005°33'3 2.8
2015-May-15 19:25N 58°56' E 005°36'0 0.0
2015-May-15 18:33N 58°56' E 005°36'0 0.0
2015-May-15 17:33N 58°56' E 005°36'0 0.0
2015-May-15 16:33N 58°56' E 005°36'0 0.0
2015-May-15 15:33N 58°56' E 005°36'0 0.0
2015-May-15 14:33N 58°56' E 005°36'0 0.0
2015-May-15 13:33N 58°56' E 005°36'3 2.7
2015-May-15 12:33N 58°54' E 005°32'5 5.1
2015-May-15 11:33N 58°59' E 005°33'7 6.6
2015-May-15 10:33N 59°05' E 005°31'8 8.3
2015-May-15 09:33N 59°12' E 005°20'11 9.4
2015-May-15 08:22N 59°22' E 005°18'  
Track history (hours):
 
Tides and Currents Weather Stations Pressure Air Temp Water Temp Dewpoint Dewpoint Depression Visibility Wind Speed Wind Dir Waves Ship Positions

Dart

Last reported at 2015-May-24 12:32 UTC. Time now 2015-May-25 01:23 UTC.
Position N 63°07' E 007°44'.

Length 66 m; draft 4.5 m.

Type: Tanker. MMSI: 219416000.

Date/timePositionNaut miles runAvg speedWind from/ knotsBaromVisibWave heightAir tempDewpointWater temp
2015-May-24 12:32N 63°07' E 007°44'0 0.0
2015-May-24 11:32N 63°07' E 007°44'0 0.0
2015-May-23 22:13N 63°07' E 007°44'229 4.6
2015-May-21 20:23N 59°30' E 005°13'5 5.8
2015-May-21 19:31N 59°25' E 005°14'0 0.0
2015-May-21 18:31N 59°25' E 005°14'0 0.0
2015-May-21 17:22N 59°25' E 005°14'0 0.0
2015-May-21 16:28N 59°25' E 005°14'8 6.3
2015-May-21 15:16N 59°18' E 005°20'810.6
2015-May-21 14:33N 59°10' E 005°22'9 9.0
2015-May-21 13:33N 59°03' E 005°33'8 7.6
2015-May-21 12:33N 58°56' E 005°36'0 0.0
2015-May-21 11:33N 58°56' E 005°36'0 0.0
2015-May-21 10:33N 58°56' E 005°36'0 0.0
2015-May-21 09:33N 58°56' E 005°36'0 0.0
2015-May-21 08:33N 58°56' E 005°36'0 0.0
2015-May-21 07:33N 58°56' E 005°36'0 0.2
2015-May-21 06:33N 58°56' E 005°35'9 8.7
2015-May-21 05:33N 59°04' E 005°32'9 8.9
2015-May-21 04:33N 59°11' E 005°20'9 8.3
2015-May-21 03:29N 59°20' E 005°19'9 8.1
2015-May-21 02:25N 59°28' E 005°13'  
2015-May-16 05:25N 59°30' E 005°13'1110.0
2015-May-16 04:22N 59°20' E 005°19'910.4
2015-May-16 03:33N 59°12' E 005°22'9 9.1
2015-May-16 02:33N 59°05' E 005°33'5 1.0
2015-May-15 21:20N 59°01' E 005°40'4 5.2
2015-May-15 20:33N 58°59' E 005°33'3 2.8
2015-May-15 19:25N 58°56' E 005°36'0 0.0
2015-May-15 18:33N 58°56' E 005°36'0 0.0
2015-May-15 17:33N 58°56' E 005°36'0 0.0
2015-May-15 16:33N 58°56' E 005°36'0 0.0
2015-May-15 15:33N 58°56' E 005°36'0 0.0
2015-May-15 14:33N 58°56' E 005°36'0 0.0
2015-May-15 13:33N 58°56' E 005°36'3 2.7
2015-May-15 12:33N 58°54' E 005°32'5 5.1
2015-May-15 11:33N 58°59' E 005°33'7 6.6
2015-May-15 10:33N 59°05' E 005°31'8 8.3
2015-May-15 09:33N 59°12' E 005°20'11 9.4
2015-May-15 08:22N 59°22' E 005°18'  

Dump ship's entire track history